Terminal Aerodrome Forecast
Issued by NWS Wilmington, OH

Current Version | Previous Version | Text Only | Print | Product List | Glossary Off
Versions: 1 2 3 4 5 6 7 8 9 10 11 12 13 14 15 16 17 18 19 20 21 22 23 24 25 26

740
FTUS41 KILN 092337
TAFCVG
TAF
KCVG 092337Z 1000/1106 28012G18KT P6SM VCSH BKN035
     FM100300 29010KT P6SM BKN035
     FM100900 27007KT P6SM SCT035 OVC200
     FM101300 23012KT P6SM OVC100
     FM102200 22007KT P6SM BKN050=

USA.gov is the U.S. government's official web portal to all federal, state and local government web resources and services.